sensor_id;sensor_type;location;lat;lon;timestamp;P1;durP1;ratioP1;P2;durP2;ratioP2
56081;SDS011;41957;52.060;5.138;2022-08-21T00:01:42;13.15;;;5.80;;
56081;SDS011;41957;52.060;5.138;2022-08-21T00:04:08;13.52;;;5.55;;
56081;SDS011;41957;52.060;5.138;2022-08-21T00:06:35;12.85;;;5.28;;
56081;SDS011;41957;52.060;5.138;2022-08-21T00:09:02;12.98;;;5.43;;
56081;SDS011;41957;52.060;5.138;2022-08-21T00:11:29;12.95;;;5.10;;
56081;SDS011;41957;52.060;5.138;2022-08-21T00:13:54;12.70;;;4.97;;
56081;SDS011;41957;52.060;5.138;2022-08-21T00:16:20;12.02;;;5.10;;
56081;SDS011;41957;52.060;5.138;2022-08-21T00:18:45;12.80;;;5.30;;
56081;SDS011;41957;52.060;5.138;2022-08-21T00:21:14;13.30;;;4.75;;
56081;SDS011;41957;52.060;5.138;2022-08-21T00:23:40;11.90;;;4.88;;
56081;SDS011;41957;52.060;5.138;2022-08-21T00:26:06;12.68;;;5.03;;
56081;SDS011;41957;52.060;5.138;2022-08-21T00:28:32;12.80;;;4.88;;
56081;SDS011;41957;52.060;5.138;2022-08-21T00:30:58;13.10;;;5.40;;
56081;SDS011;41957;52.060;5.138;2022-08-21T00:33:24;12.70;;;4.88;;
56081;SDS011;41957;52.060;5.138;2022-08-21T00:35:50;13.00;;;5.45;;
56081;SDS011;41957;52.060;5.138;2022-08-21T00:38:16;12.10;;;4.75;;
56081;SDS011;41957;52.060;5.138;2022-08-21T00:40:47;11.63;;;4.35;;
56081;SDS011;41957;52.060;5.138;2022-08-21T00:43:19;12.38;;;4.60;;
56081;SDS011;41957;52.060;5.138;2022-08-21T00:45:47;13.13;;;5.07;;
56081;SDS011;41957;52.060;5.138;2022-08-21T00:48:13;11.65;;;4.70;;
56081;SDS011;41957;52.060;5.138;2022-08-21T00:50:42;12.05;;;4.60;;
56081;SDS011;41957;52.060;5.138;2022-08-21T00:53:11;12.20;;;4.47;;
56081;SDS011;41957;52.060;5.138;2022-08-21T00:55:38;13.07;;;4.63;;
56081;SDS011;41957;52.060;5.138;2022-08-21T00:58:05;12.32;;;4.60;;
56081;SDS011;41957;52.060;5.138;2022-08-21T01:00:34;12.75;;;4.75;;
56081;SDS011;41957;52.060;5.138;2022-08-21T01:03:05;12.63;;;4.10;;
56081;SDS011;41957;52.060;5.138;2022-08-21T01:05:33;11.77;;;4.13;;
56081;SDS011;41957;52.060;5.138;2022-08-21T01:07:58;11.30;;;4.40;;
56081;SDS011;41957;52.060;5.138;2022-08-21T01:10:24;12.75;;;4.45;;
56081;SDS011;41957;52.060;5.138;2022-08-21T01:12:53;12.30;;;4.40;;
56081;SDS011;41957;52.060;5.138;2022-08-21T01:15:22;12.23;;;4.25;;
56081;SDS011;41957;52.060;5.138;2022-08-21T01:17:49;12.30;;;4.18;;
56081;SDS011;41957;52.060;5.138;2022-08-21T01:20:16;12.07;;;4.10;;
56081;SDS011;41957;52.060;5.138;2022-08-21T01:22:42;11.43;;;4.30;;
56081;SDS011;41957;52.060;5.138;2022-08-21T01:25:08;11.43;;;4.22;;
56081;SDS011;41957;52.060;5.138;2022-08-21T01:27:35;11.70;;;4.18;;
56081;SDS011;41957;52.060;5.138;2022-08-21T01:30:04;11.85;;;4.35;;
56081;SDS011;41957;52.060;5.138;2022-08-21T01:35:01;11.13;;;4.38;;
56081;SDS011;41957;52.060;5.138;2022-08-21T01:37:28;11.60;;;4.22;;
56081;SDS011;41957;52.060;5.138;2022-08-21T01:39:54;11.55;;;3.92;;
56081;SDS011;41957;52.060;5.138;2022-08-21T01:42:19;10.77;;;3.70;;
56081;SDS011;41957;52.060;5.138;2022-08-21T01:44:44;11.15;;;3.90;;
56081;SDS011;41957;52.060;5.138;2022-08-21T01:47:12;11.52;;;4.03;;
56081;SDS011;41957;52.060;5.138;2022-08-21T01:49:39;11.02;;;3.97;;
56081;SDS011;41957;52.060;5.138;2022-08-21T01:52:04;11.15;;;3.88;;
56081;SDS011;41957;52.060;5.138;2022-08-21T01:54:30;11.48;;;4.00;;
56081;SDS011;41957;52.060;5.138;2022-08-21T01:56:56;11.25;;;3.97;;
56081;SDS011;41957;52.060;5.138;2022-08-21T01:59:23;11.27;;;3.90;;
56081;SDS011;41957;52.060;5.138;2022-08-21T02:01:48;11.43;;;4.05;;
56081;SDS011;41957;52.060;5.138;2022-08-21T02:04:14;11.32;;;3.58;;
56081;SDS011;41957;52.060;5.138;2022-08-21T02:06:40;11.18;;;3.70;;
56081;SDS011;41957;52.060;5.138;2022-08-21T02:09:06;11.02;;;3.63;;
56081;SDS011;41957;52.060;5.138;2022-08-21T02:11:34;11.05;;;3.72;;
56081;SDS011;41957;52.060;5.138;2022-08-21T02:14:00;10.00;;;3.38;;
56081;SDS011;41957;52.060;5.138;2022-08-21T02:16:26;11.95;;;3.90;;
56081;SDS011;41957;52.060;5.138;2022-08-21T02:18:51;10.18;;;3.35;;
56081;SDS011;41957;52.060;5.138;2022-08-21T02:21:17;11.10;;;3.22;;
56081;SDS011;41957;52.060;5.138;2022-08-21T02:23:42;11.40;;;3.50;;
56081;SDS011;41957;52.060;5.138;2022-08-21T02:26:08;11.13;;;3.55;;
56081;SDS011;41957;52.060;5.138;2022-08-21T02:28:34;10.48;;;3.60;;
56081;SDS011;41957;52.060;5.138;2022-08-21T02:31:00;11.13;;;3.42;;
56081;SDS011;41957;52.060;5.138;2022-08-21T02:33:26;10.70;;;3.75;;
56081;SDS011;41957;52.060;5.138;2022-08-21T02:35:52;10.73;;;3.65;;
56081;SDS011;41957;52.060;5.138;2022-08-21T02:38:20;11.75;;;3.80;;
56081;SDS011;41957;52.060;5.138;2022-08-21T02:40:51;11.35;;;3.42;;
56081;SDS011;41957;52.060;5.138;2022-08-21T02:43:18;10.60;;;3.50;;
56081;SDS011;41957;52.060;5.138;2022-08-21T02:45:46;11.40;;;3.67;;
56081;SDS011;41957;52.060;5.138;2022-08-21T02:48:13;11.07;;;3.28;;
56081;SDS011;41957;52.060;5.138;2022-08-21T02:50:43;10.80;;;3.63;;
56081;SDS011;41957;52.060;5.138;2022-08-21T02:53:11;11.38;;;3.72;;
56081;SDS011;41957;52.060;5.138;2022-08-21T02:55:42;11.50;;;3.53;;
56081;SDS011;41957;52.060;5.138;2022-08-21T02:58:08;9.20;;;2.95;;
56081;SDS011;41957;52.060;5.138;2022-08-21T03:00:35;11.10;;;3.47;;
56081;SDS011;41957;52.060;5.138;2022-08-21T03:03:02;10.18;;;3.60;;
56081;SDS011;41957;52.060;5.138;2022-08-21T03:05:28;11.15;;;3.70;;
56081;SDS011;41957;52.060;5.138;2022-08-21T03:07:58;11.80;;;3.28;;
56081;SDS011;41957;52.060;5.138;2022-08-21T03:10:25;10.95;;;3.85;;
56081;SDS011;41957;52.060;5.138;2022-08-21T03:12:51;9.80;;;3.35;;
56081;SDS011;41957;52.060;5.138;2022-08-21T03:15:18;11.32;;;3.63;;
56081;SDS011;41957;52.060;5.138;2022-08-21T03:17:45;11.10;;;3.17;;
56081;SDS011;41957;52.060;5.138;2022-08-21T03:20:12;10.10;;;3.10;;
56081;SDS011;41957;52.060;5.138;2022-08-21T03:22:39;10.20;;;3.33;;
56081;SDS011;41957;52.060;5.138;2022-08-21T03:25:05;10.80;;;3.33;;
56081;SDS011;41957;52.060;5.138;2022-08-21T03:27:31;9.43;;;2.85;;
56081;SDS011;41957;52.060;5.138;2022-08-21T03:29:56;10.57;;;3.20;;
56081;SDS011;41957;52.060;5.138;2022-08-21T03:32:22;10.23;;;3.00;;
56081;SDS011;41957;52.060;5.138;2022-08-21T03:34:47;10.07;;;3.03;;
56081;SDS011;41957;52.060;5.138;2022-08-21T03:37:14;10.13;;;3.22;;
56081;SDS011;41957;52.060;5.138;2022-08-21T03:39:40;9.55;;;3.00;;
56081;SDS011;41957;52.060;5.138;2022-08-21T03:42:06;10.07;;;2.90;;
56081;SDS011;41957;52.060;5.138;2022-08-21T03:44:32;9.70;;;2.78;;
56081;SDS011;41957;52.060;5.138;2022-08-21T03:46:59;10.05;;;3.22;;
56081;SDS011;41957;52.060;5.138;2022-08-21T03:49:25;10.70;;;2.90;;
56081;SDS011;41957;52.060;5.138;2022-08-21T03:51:51;10.10;;;3.17;;
56081;SDS011;41957;52.060;5.138;2022-08-21T03:54:16;11.68;;;3.55;;
56081;SDS011;41957;52.060;5.138;2022-08-21T03:56:42;10.30;;;2.75;;
56081;SDS011;41957;52.060;5.138;2022-08-21T03:59:07;10.00;;;2.83;;
56081;SDS011;41957;52.060;5.138;2022-08-21T04:01:32;11.18;;;3.00;;
56081;SDS011;41957;52.060;5.138;2022-08-21T04:03:58;10.73;;;2.97;;
56081;SDS011;41957;52.060;5.138;2022-08-21T04:06:23;10.38;;;3.20;;
56081;SDS011;41957;52.060;5.138;2022-08-21T04:08:49;10.90;;;3.00;;
56081;SDS011;41957;52.060;5.138;2022-08-21T04:11:15;9.52;;;2.70;;
56081;SDS011;41957;52.060;5.138;2022-08-21T04:13:40;9.93;;;3.22;;
56081;SDS011;41957;52.060;5.138;2022-08-21T04:16:06;10.57;;;3.30;;
56081;SDS011;41957;52.060;5.138;2022-08-21T04:18:32;9.95;;;2.88;;
56081;SDS011;41957;52.060;5.138;2022-08-21T04:20:57;9.60;;;2.97;;
56081;SDS011;41957;52.060;5.138;2022-08-21T04:23:24;10.63;;;3.10;;
56081;SDS011;41957;52.060;5.138;2022-08-21T04:25:54;9.25;;;2.80;;
56081;SDS011;41957;52.060;5.138;2022-08-21T04:28:21;11.32;;;3.25;;
56081;SDS011;41957;52.060;5.138;2022-08-21T04:30:47;9.55;;;2.70;;
56081;SDS011;41957;52.060;5.138;2022-08-21T04:33:13;10.65;;;2.75;;
56081;SDS011;41957;52.060;5.138;2022-08-21T04:35:39;8.77;;;2.83;;
56081;SDS011;41957;52.060;5.138;2022-08-21T04:38:05;9.98;;;3.03;;
56081;SDS011;41957;52.060;5.138;2022-08-21T04:40:30;9.68;;;2.83;;
56081;SDS011;41957;52.060;5.138;2022-08-21T04:42:56;8.32;;;2.60;;
56081;SDS011;41957;52.060;5.138;2022-08-21T04:45:31;10.98;;;3.05;;
56081;SDS011;41957;52.060;5.138;2022-08-21T04:48:00;10.05;;;2.85;;
56081;SDS011;41957;52.060;5.138;2022-08-21T04:50:36;8.88;;;2.33;;
56081;SDS011;41957;52.060;5.138;2022-08-21T04:53:04;8.45;;;2.67;;
56081;SDS011;41957;52.060;5.138;2022-08-21T04:55:42;9.48;;;2.90;;
56081;SDS011;41957;52.060;5.138;2022-08-21T04:58:08;9.93;;;2.70;;
56081;SDS011;41957;52.060;5.138;2022-08-21T05:00:36;9.40;;;2.75;;
56081;SDS011;41957;52.060;5.138;2022-08-21T05:03:02;9.93;;;2.72;;
56081;SDS011;41957;52.060;5.138;2022-08-21T05:05:30;10.07;;;3.05;;
56081;SDS011;41957;52.060;5.138;2022-08-21T05:07:56;10.70;;;3.00;;
56081;SDS011;41957;52.060;5.138;2022-08-21T05:10:24;8.90;;;2.60;;
56081;SDS011;41957;52.060;5.138;2022-08-21T05:12:50;9.20;;;2.50;;
56081;SDS011;41957;52.060;5.138;2022-08-21T05:15:15;9.98;;;2.42;;
56081;SDS011;41957;52.060;5.138;2022-08-21T05:17:42;9.48;;;2.72;;
56081;SDS011;41957;52.060;5.138;2022-08-21T05:20:08;7.72;;;2.50;;
56081;SDS011;41957;52.060;5.138;2022-08-21T05:22:35;8.77;;;2.70;;
56081;SDS011;41957;52.060;5.138;2022-08-21T05:25:00;9.77;;;2.53;;
56081;SDS011;41957;52.060;5.138;2022-08-21T05:27:26;11.07;;;2.72;;
56081;SDS011;41957;52.060;5.138;2022-08-21T05:29:54;8.88;;;2.65;;
56081;SDS011;41957;52.060;5.138;2022-08-21T05:32:20;9.45;;;2.78;;
56081;SDS011;41957;52.060;5.138;2022-08-21T05:34:45;10.70;;;2.85;;
56081;SDS011;41957;52.060;5.138;2022-08-21T05:37:11;9.77;;;2.70;;
56081;SDS011;41957;52.060;5.138;2022-08-21T05:39:37;10.35;;;2.90;;
56081;SDS011;41957;52.060;5.138;2022-08-21T05:42:02;9.73;;;2.72;;
56081;SDS011;41957;52.060;5.138;2022-08-21T05:44:28;10.18;;;3.05;;
56081;SDS011;41957;52.060;5.138;2022-08-21T05:46:53;14.73;;;4.22;;
56081;SDS011;41957;52.060;5.138;2022-08-21T05:49:19;15.32;;;5.07;;
56081;SDS011;41957;52.060;5.138;2022-08-21T05:51:44;14.43;;;4.85;;
56081;SDS011;41957;52.060;5.138;2022-08-21T05:54:09;14.88;;;4.40;;
56081;SDS011;41957;52.060;5.138;2022-08-21T05:56:36;12.85;;;3.58;;
56081;SDS011;41957;52.060;5.138;2022-08-21T05:59:02;13.27;;;4.00;;
56081;SDS011;41957;52.060;5.138;2022-08-21T06:01:28;11.90;;;3.45;;
56081;SDS011;41957;52.060;5.138;2022-08-21T06:03:53;12.00;;;3.30;;
56081;SDS011;41957;52.060;5.138;2022-08-21T06:06:19;13.13;;;3.15;;
56081;SDS011;41957;52.060;5.138;2022-08-21T06:08:44;10.15;;;2.70;;
56081;SDS011;41957;52.060;5.138;2022-08-21T06:11:10;12.85;;;2.90;;
56081;SDS011;41957;52.060;5.138;2022-08-21T06:13:35;11.85;;;3.17;;
56081;SDS011;41957;52.060;5.138;2022-08-21T06:16:08;12.02;;;2.90;;
56081;SDS011;41957;52.060;5.138;2022-08-21T06:18:36;9.35;;;2.53;;
56081;SDS011;41957;52.060;5.138;2022-08-21T06:21:03;10.00;;;2.67;;
56081;SDS011;41957;52.060;5.138;2022-08-21T06:23:29;12.70;;;3.10;;
56081;SDS011;41957;52.060;5.138;2022-08-21T06:25:54;10.13;;;2.50;;
56081;SDS011;41957;52.060;5.138;2022-08-21T06:28:20;10.50;;;2.80;;
56081;SDS011;41957;52.060;5.138;2022-08-21T06:30:45;10.70;;;2.60;;
56081;SDS011;41957;52.060;5.138;2022-08-21T06:33:11;10.10;;;2.70;;
56081;SDS011;41957;52.060;5.138;2022-08-21T06:35:36;11.70;;;2.92;;
56081;SDS011;41957;52.060;5.138;2022-08-21T06:38:02;10.02;;;2.97;;
56081;SDS011;41957;52.060;5.138;2022-08-21T06:40:27;9.55;;;2.45;;
56081;SDS011;41957;52.060;5.138;2022-08-21T06:42:54;10.05;;;2.67;;
56081;SDS011;41957;52.060;5.138;2022-08-21T06:45:20;12.35;;;2.83;;
56081;SDS011;41957;52.060;5.138;2022-08-21T06:47:45;9.13;;;2.30;;
56081;SDS011;41957;52.060;5.138;2022-08-21T06:50:11;18.27;;;3.85;;
56081;SDS011;41957;52.060;5.138;2022-08-21T06:52:36;15.15;;;4.45;;
56081;SDS011;41957;52.060;5.138;2022-08-21T06:55:04;13.95;;;4.07;;
56081;SDS011;41957;52.060;5.138;2022-08-21T06:57:31;17.73;;;3.95;;
56081;SDS011;41957;52.060;5.138;2022-08-21T06:59:56;16.98;;;4.05;;
56081;SDS011;41957;52.060;5.138;2022-08-21T07:02:22;19.45;;;4.50;;
56081;SDS011;41957;52.060;5.138;2022-08-21T07:04:47;17.30;;;4.20;;
56081;SDS011;41957;52.060;5.138;2022-08-21T07:07:13;13.98;;;4.13;;
56081;SDS011;41957;52.060;5.138;2022-08-21T07:09:38;17.17;;;3.50;;
56081;SDS011;41957;52.060;5.138;2022-08-21T07:12:04;12.88;;;3.30;;
56081;SDS011;41957;52.060;5.138;2022-08-21T07:14:30;12.70;;;3.10;;
56081;SDS011;41957;52.060;5.138;2022-08-21T07:16:55;12.65;;;2.95;;
56081;SDS011;41957;52.060;5.138;2022-08-21T07:19:21;13.50;;;2.80;;
56081;SDS011;41957;52.060;5.138;2022-08-21T07:21:46;15.25;;;4.03;;
56081;SDS011;41957;52.060;5.138;2022-08-21T07:24:12;15.15;;;4.32;;
56081;SDS011;41957;52.060;5.138;2022-08-21T07:26:38;18.25;;;4.70;;
56081;SDS011;41957;52.060;5.138;2022-08-21T07:29:04;20.05;;;4.70;;
56081;SDS011;41957;52.060;5.138;2022-08-21T07:31:29;20.40;;;5.03;;
56081;SDS011;41957;52.060;5.138;2022-08-21T07:33:55;20.70;;;5.18;;
56081;SDS011;41957;52.060;5.138;2022-08-21T07:36:21;17.38;;;5.10;;
56081;SDS011;41957;52.060;5.138;2022-08-21T07:38:46;19.35;;;4.55;;
56081;SDS011;41957;52.060;5.138;2022-08-21T07:41:16;16.23;;;4.65;;
56081;SDS011;41957;52.060;5.138;2022-08-21T07:43:47;16.77;;;4.60;;
56081;SDS011;41957;52.060;5.138;2022-08-21T07:46:13;17.00;;;4.55;;
56081;SDS011;41957;52.060;5.138;2022-08-21T07:48:39;17.38;;;4.68;;
56081;SDS011;41957;52.060;5.138;2022-08-21T07:51:06;15.20;;;4.57;;
56081;SDS011;41957;52.060;5.138;2022-08-21T07:53:33;19.45;;;4.78;;
56081;SDS011;41957;52.060;5.138;2022-08-21T07:55:59;18.58;;;4.68;;
56081;SDS011;41957;52.060;5.138;2022-08-21T07:58:25;15.48;;;4.57;;
56081;SDS011;41957;52.060;5.138;2022-08-21T08:00:50;15.88;;;5.15;;
56081;SDS011;41957;52.060;5.138;2022-08-21T08:03:15;18.90;;;4.85;;
56081;SDS011;41957;52.060;5.138;2022-08-21T08:05:41;17.63;;;4.68;;
56081;SDS011;41957;52.060;5.138;2022-08-21T08:08:07;15.32;;;4.78;;
56081;SDS011;41957;52.060;5.138;2022-08-21T08:10:32;16.35;;;4.43;;
56081;SDS011;41957;52.060;5.138;2022-08-21T08:12:58;16.88;;;4.38;;
56081;SDS011;41957;52.060;5.138;2022-08-21T08:15:25;15.77;;;4.43;;
56081;SDS011;41957;52.060;5.138;2022-08-21T08:17:51;18.98;;;5.28;;
56081;SDS011;41957;52.060;5.138;2022-08-21T08:20:17;16.60;;;4.80;;
56081;SDS011;41957;52.060;5.138;2022-08-21T08:22:43;14.98;;;4.45;;
56081;SDS011;41957;52.060;5.138;2022-08-21T08:25:09;18.05;;;4.68;;
56081;SDS011;41957;52.060;5.138;2022-08-21T08:27:38;18.42;;;4.82;;
56081;SDS011;41957;52.060;5.138;2022-08-21T08:30:04;17.42;;;4.95;;
56081;SDS011;41957;52.060;5.138;2022-08-21T08:32:31;17.65;;;4.90;;
56081;SDS011;41957;52.060;5.138;2022-08-21T08:34:57;16.73;;;4.30;;
56081;SDS011;41957;52.060;5.138;2022-08-21T08:37:22;15.13;;;4.50;;
56081;SDS011;41957;52.060;5.138;2022-08-21T08:39:48;17.23;;;4.80;;
56081;SDS011;41957;52.060;5.138;2022-08-21T08:42:15;19.27;;;4.70;;
56081;SDS011;41957;52.060;5.138;2022-08-21T08:44:51;16.55;;;4.60;;
56081;SDS011;41957;52.060;5.138;2022-08-21T08:47:32;17.55;;;5.07;;
56081;SDS011;41957;52.060;5.138;2022-08-21T08:50:12;19.80;;;4.50;;
56081;SDS011;41957;52.060;5.138;2022-08-21T08:52:52;16.33;;;4.07;;
56081;SDS011;41957;52.060;5.138;2022-08-21T08:55:33;14.20;;;3.85;;
56081;SDS011;41957;52.060;5.138;2022-08-21T08:58:01;14.68;;;4.30;;
56081;SDS011;41957;52.060;5.138;2022-08-21T09:00:27;15.43;;;4.32;;
56081;SDS011;41957;52.060;5.138;2022-08-21T09:02:55;16.55;;;4.50;;
56081;SDS011;41957;52.060;5.138;2022-08-21T09:05:26;18.10;;;4.60;;
56081;SDS011;41957;52.060;5.138;2022-08-21T09:10:48;17.73;;;4.47;;
56081;SDS011;41957;52.060;5.138;2022-08-21T09:27:33;14.70;;;4.65;;
56081;SDS011;41957;52.060;5.138;2022-08-21T09:30:00;16.63;;;3.58;;
56081;SDS011;41957;52.060;5.138;2022-08-21T09:32:27;17.67;;;4.22;;
56081;SDS011;41957;52.060;5.138;2022-08-21T09:35:05;15.18;;;4.10;;
56081;SDS011;41957;52.060;5.138;2022-08-21T09:37:56;16.30;;;3.97;;
56081;SDS011;41957;52.060;5.138;2022-08-21T09:40:38;14.10;;;3.75;;
56081;SDS011;41957;52.060;5.138;2022-08-21T09:45:39;18.08;;;3.50;;
56081;SDS011;41957;52.060;5.138;2022-08-21T09:50:38;15.52;;;3.20;;
56081;SDS011;41957;52.060;5.138;2022-08-21T09:53:05;15.52;;;3.38;;
56081;SDS011;41957;52.060;5.138;2022-08-21T09:55:55;13.43;;;2.95;;
56081;SDS011;41957;52.060;5.138;2022-08-21T09:58:41;17.67;;;3.80;;
56081;SDS011;41957;52.060;5.138;2022-08-21T10:01:14;12.10;;;3.13;;
56081;SDS011;41957;52.060;5.138;2022-08-21T10:03:48;15.10;;;3.17;;
56081;SDS011;41957;52.060;5.138;2022-08-21T10:06:25;19.60;;;3.25;;
56081;SDS011;41957;52.060;5.138;2022-08-21T10:09:09;12.15;;;2.85;;
56081;SDS011;41957;52.060;5.138;2022-08-21T10:11:41;13.18;;;3.45;;
56081;SDS011;41957;52.060;5.138;2022-08-21T10:16:54;13.77;;;3.00;;
56081;SDS011;41957;52.060;5.138;2022-08-21T10:19:55;12.65;;;3.10;;
56081;SDS011;41957;52.060;5.138;2022-08-21T10:49:22;12.90;;;3.03;;
56081;SDS011;41957;52.060;5.138;2022-08-21T10:51:54;15.15;;;2.63;;
56081;SDS011;41957;52.060;5.138;2022-08-21T10:57:11;13.73;;;3.00;;
56081;SDS011;41957;52.060;5.138;2022-08-21T10:59:49;14.13;;;3.05;;
56081;SDS011;41957;52.060;5.138;2022-08-21T11:02:26;12.23;;;3.10;;
56081;SDS011;41957;52.060;5.138;2022-08-21T11:05:05;11.23;;;2.78;;
56081;SDS011;41957;52.060;5.138;2022-08-21T11:07:39;12.10;;;3.08;;
56081;SDS011;41957;52.060;5.138;2022-08-21T11:13:13;15.18;;;3.10;;
56081;SDS011;41957;52.060;5.138;2022-08-21T11:15:59;12.75;;;2.92;;
56081;SDS011;41957;52.060;5.138;2022-08-21T11:18:40;12.40;;;2.70;;
56081;SDS011;41957;52.060;5.138;2022-08-21T11:23:50;11.55;;;2.90;;
56081;SDS011;41957;52.060;5.138;2022-08-21T11:29:10;10.90;;;2.80;;
56081;SDS011;41957;52.060;5.138;2022-08-21T11:31:50;12.85;;;2.85;;
56081;SDS011;41957;52.060;5.138;2022-08-21T11:39:43;14.02;;;2.80;;
56081;SDS011;41957;52.060;5.138;2022-08-21T11:45:10;13.30;;;3.10;;
56081;SDS011;41957;52.060;5.138;2022-08-21T11:50:29;13.60;;;3.03;;
56081;SDS011;41957;52.060;5.138;2022-08-21T11:55:48;13.50;;;2.60;;
56081;SDS011;41957;52.060;5.138;2022-08-21T11:58:20;11.25;;;3.13;;
56081;SDS011;41957;52.060;5.138;2022-08-21T12:00:54;15.18;;;3.08;;
56081;SDS011;41957;52.060;5.138;2022-08-21T12:03:25;10.93;;;2.50;;
56081;SDS011;41957;52.060;5.138;2022-08-21T12:05:53;14.35;;;2.80;;
56081;SDS011;41957;52.060;5.138;2022-08-21T12:08:29;15.40;;;2.75;;
56081;SDS011;41957;52.060;5.138;2022-08-21T12:11:10;13.52;;;3.17;;
56081;SDS011;41957;52.060;5.138;2022-08-21T12:13:58;13.93;;;3.22;;
56081;SDS011;41957;52.060;5.138;2022-08-21T12:16:37;12.82;;;2.65;;
56081;SDS011;41957;52.060;5.138;2022-08-21T12:19:06;13.18;;;2.78;;
56081;SDS011;41957;52.060;5.138;2022-08-21T12:21:51;14.02;;;3.38;;
56081;SDS011;41957;52.060;5.138;2022-08-21T12:24:34;10.13;;;2.58;;
56081;SDS011;41957;52.060;5.138;2022-08-21T12:27:23;13.27;;;3.00;;
56081;SDS011;41957;52.060;5.138;2022-08-21T12:30:00;11.23;;;2.83;;
56081;SDS011;41957;52.060;5.138;2022-08-21T12:32:31;11.45;;;3.03;;
56081;SDS011;41957;52.060;5.138;2022-08-21T12:35:14;12.80;;;2.60;;
56081;SDS011;41957;52.060;5.138;2022-08-21T12:37:47;13.88;;;2.80;;
56081;SDS011;41957;52.060;5.138;2022-08-21T12:40:21;16.35;;;3.10;;
56081;SDS011;41957;52.060;5.138;2022-08-21T12:42:51;10.52;;;2.50;;
56081;SDS011;41957;52.060;5.138;2022-08-21T12:48:06;11.25;;;2.42;;
56081;SDS011;41957;52.060;5.138;2022-08-21T12:50:37;10.73;;;2.60;;
56081;SDS011;41957;52.060;5.138;2022-08-21T12:53:21;11.77;;;2.70;;
56081;SDS011;41957;52.060;5.138;2022-08-21T12:55:53;12.73;;;2.90;;
56081;SDS011;41957;52.060;5.138;2022-08-21T12:58:24;12.88;;;2.75;;
56081;SDS011;41957;52.060;5.138;2022-08-21T13:00:51;11.48;;;2.58;;
56081;SDS011;41957;52.060;5.138;2022-08-21T13:03:19;11.48;;;2.72;;
56081;SDS011;41957;52.060;5.138;2022-08-21T13:05:47;11.88;;;2.88;;
56081;SDS011;41957;52.060;5.138;2022-08-21T13:08:13;9.80;;;2.30;;
56081;SDS011;41957;52.060;5.138;2022-08-21T13:10:39;11.05;;;2.35;;
56081;SDS011;41957;52.060;5.138;2022-08-21T13:13:20;10.95;;;2.80;;
56081;SDS011;41957;52.060;5.138;2022-08-21T13:15:47;10.55;;;2.83;;
56081;SDS011;41957;52.060;5.138;2022-08-21T13:18:26;12.57;;;2.90;;
56081;SDS011;41957;52.060;5.138;2022-08-21T13:21:02;12.95;;;3.05;;
56081;SDS011;41957;52.060;5.138;2022-08-21T13:23:46;15.90;;;3.65;;
56081;SDS011;41957;52.060;5.138;2022-08-21T13:26:12;12.02;;;3.30;;
56081;SDS011;41957;52.060;5.138;2022-08-21T13:28:38;12.00;;;3.45;;
56081;SDS011;41957;52.060;5.138;2022-08-21T13:31:06;12.43;;;3.10;;
56081;SDS011;41957;52.060;5.138;2022-08-21T13:33:35;11.57;;;3.22;;
56081;SDS011;41957;52.060;5.138;2022-08-21T13:36:16;11.95;;;3.55;;
56081;SDS011;41957;52.060;5.138;2022-08-21T13:38:45;12.80;;;3.95;;
56081;SDS011;41957;52.060;5.138;2022-08-21T13:44:15;11.82;;;3.92;;
56081;SDS011;41957;52.060;5.138;2022-08-21T13:46:41;12.70;;;4.00;;
56081;SDS011;41957;52.060;5.138;2022-08-21T13:49:08;13.40;;;4.05;;
56081;SDS011;41957;52.060;5.138;2022-08-21T13:51:35;11.32;;;4.53;;
56081;SDS011;41957;52.060;5.138;2022-08-21T13:54:02;13.40;;;4.82;;
56081;SDS011;41957;52.060;5.138;2022-08-21T13:56:43;13.07;;;4.28;;
56081;SDS011;41957;52.060;5.138;2022-08-21T13:59:10;13.30;;;4.43;;
56081;SDS011;41957;52.060;5.138;2022-08-21T14:01:38;12.95;;;4.22;;
56081;SDS011;41957;52.060;5.138;2022-08-21T14:04:22;12.05;;;4.72;;
56081;SDS011;41957;52.060;5.138;2022-08-21T14:06:50;13.57;;;4.90;;
56081;SDS011;41957;52.060;5.138;2022-08-21T14:11:56;12.40;;;4.70;;
56081;SDS011;41957;52.060;5.138;2022-08-21T14:14:25;14.23;;;4.78;;
56081;SDS011;41957;52.060;5.138;2022-08-21T14:16:55;13.35;;;4.13;;
56081;SDS011;41957;52.060;5.138;2022-08-21T14:19:35;12.63;;;4.00;;
56081;SDS011;41957;52.060;5.138;2022-08-21T14:24:47;13.60;;;4.18;;
56081;SDS011;41957;52.060;5.138;2022-08-21T14:27:15;15.82;;;4.32;;
56081;SDS011;41957;52.060;5.138;2022-08-21T14:29:42;10.95;;;3.75;;
56081;SDS011;41957;52.060;5.138;2022-08-21T14:32:41;13.77;;;4.32;;
56081;SDS011;41957;52.060;5.138;2022-08-21T14:35:04;12.98;;;4.40;;
56081;SDS011;41957;52.060;5.138;2022-08-21T14:37:30;17.15;;;4.32;;
56081;SDS011;41957;52.060;5.138;2022-08-21T14:39:56;12.25;;;4.15;;
56081;SDS011;41957;52.060;5.138;2022-08-21T14:42:22;12.90;;;4.78;;
56081;SDS011;41957;52.060;5.138;2022-08-21T14:44:48;11.77;;;4.30;;
56081;SDS011;41957;52.060;5.138;2022-08-21T14:47:14;13.38;;;4.97;;
56081;SDS011;41957;52.060;5.138;2022-08-21T14:49:40;11.45;;;4.43;;
56081;SDS011;41957;52.060;5.138;2022-08-21T14:52:05;14.63;;;5.47;;
56081;SDS011;41957;52.060;5.138;2022-08-21T14:54:31;13.23;;;5.50;;
56081;SDS011;41957;52.060;5.138;2022-08-21T14:57:02;15.27;;;5.10;;
56081;SDS011;41957;52.060;5.138;2022-08-21T14:59:31;12.57;;;5.10;;
56081;SDS011;41957;52.060;5.138;2022-08-21T15:01:57;11.90;;;5.10;;
56081;SDS011;41957;52.060;5.138;2022-08-21T15:04:23;13.98;;;5.28;;
56081;SDS011;41957;52.060;5.138;2022-08-21T15:06:49;13.63;;;5.55;;
56081;SDS011;41957;52.060;5.138;2022-08-21T15:09:14;13.02;;;5.43;;
56081;SDS011;41957;52.060;5.138;2022-08-21T15:11:39;13.43;;;5.13;;
56081;SDS011;41957;52.060;5.138;2022-08-21T15:14:06;14.15;;;5.72;;
56081;SDS011;41957;52.060;5.138;2022-08-21T15:16:35;14.35;;;5.63;;
56081;SDS011;41957;52.060;5.138;2022-08-21T15:19:01;13.60;;;5.38;;
56081;SDS011;41957;52.060;5.138;2022-08-21T15:21:27;12.07;;;5.07;;
56081;SDS011;41957;52.060;5.138;2022-08-21T15:23:52;13.88;;;5.47;;
56081;SDS011;41957;52.060;5.138;2022-08-21T15:26:18;13.10;;;5.53;;
56081;SDS011;41957;52.060;5.138;2022-08-21T15:28:46;13.60;;;5.70;;
56081;SDS011;41957;52.060;5.138;2022-08-21T15:31:12;15.07;;;5.97;;
56081;SDS011;41957;52.060;5.138;2022-08-21T15:33:37;16.05;;;5.88;;
56081;SDS011;41957;52.060;5.138;2022-08-21T15:36:02;14.57;;;6.00;;
56081;SDS011;41957;52.060;5.138;2022-08-21T15:38:28;11.68;;;5.38;;
56081;SDS011;41957;52.060;5.138;2022-08-21T15:40:54;14.18;;;5.38;;
56081;SDS011;41957;52.060;5.138;2022-08-21T15:43:26;15.18;;;5.70;;
56081;SDS011;41957;52.060;5.138;2022-08-21T15:45:59;13.77;;;5.88;;
56081;SDS011;41957;52.060;5.138;2022-08-21T15:48:26;13.38;;;6.00;;
56081;SDS011;41957;52.060;5.138;2022-08-21T15:50:52;13.93;;;5.57;;
56081;SDS011;41957;52.060;5.138;2022-08-21T15:53:17;14.38;;;6.03;;
56081;SDS011;41957;52.060;5.138;2022-08-21T15:55:43;14.95;;;6.53;;
56081;SDS011;41957;52.060;5.138;2022-08-21T15:58:11;15.70;;;6.50;;
56081;SDS011;41957;52.060;5.138;2022-08-21T16:00:38;13.38;;;5.53;;
56081;SDS011;41957;52.060;5.138;2022-08-21T16:03:04;14.55;;;6.25;;
56081;SDS011;41957;52.060;5.138;2022-08-21T16:05:31;12.85;;;6.22;;
56081;SDS011;41957;52.060;5.138;2022-08-21T16:07:57;15.93;;;6.97;;
56081;SDS011;41957;52.060;5.138;2022-08-21T16:10:23;16.15;;;6.78;;
56081;SDS011;41957;52.060;5.138;2022-08-21T16:12:56;15.23;;;6.97;;
56081;SDS011;41957;52.060;5.138;2022-08-21T16:15:24;14.20;;;7.47;;